createdAt,value
2019-03-24T00:00:42.716Z,1.87
2019-03-24T00:03:11.110Z,2.50
2019-03-24T00:05:39.386Z,2.53
2019-03-24T00:08:07.671Z,2.13
2019-03-24T00:10:36.115Z,3.07
2019-03-24T00:13:04.508Z,2.20
2019-03-24T00:15:32.827Z,1.63
2019-03-24T00:18:01.113Z,2.13
2019-03-24T00:20:29.444Z,2.63
2019-03-24T00:22:57.747Z,2.33
2019-03-24T00:25:26.130Z,2.20
2019-03-24T00:27:54.461Z,0.97
2019-03-24T00:30:22.829Z,3.43
2019-03-24T00:32:51.210Z,1.70
2019-03-24T00:35:19.512Z,4.97
2019-03-24T00:37:48.136Z,3.10
2019-03-24T00:40:16.440Z,3.57
2019-03-24T00:42:44.732Z,2.50
2019-03-24T00:45:13.084Z,2.90
2019-03-24T00:47:41.415Z,2.17
2019-03-24T00:50:12.204Z,3.57
2019-03-24T00:52:40.580Z,2.30
2019-03-24T00:55:09.424Z,3.53
2019-03-24T00:57:37.961Z,2.73
2019-03-24T01:00:07.130Z,1.67
2019-03-24T01:02:35.495Z,2.67
2019-03-24T01:05:04.149Z,3.47
2019-03-24T01:07:32.506Z,2.60
2019-03-24T01:10:00.817Z,1.37
2019-03-24T01:12:29.182Z,2.23
2019-03-24T01:14:57.483Z,1.80
2019-03-24T01:17:25.813Z,2.43
2019-03-24T01:19:55.501Z,1.30
2019-03-24T01:22:23.987Z,1.33
2019-03-24T01:24:52.320Z,3.23
2019-03-24T01:27:20.612Z,1.57
2019-03-24T01:29:48.948Z,0.80
2019-03-24T01:32:17.264Z,1.57
2019-03-24T01:34:45.616Z,2.70
2019-03-24T01:37:14.226Z,1.43
2019-03-24T01:39:42.545Z,2.07
2019-03-24T01:42:10.793Z,5.73
2019-03-24T01:44:39.108Z,3.50
2019-03-24T01:47:10.193Z,2.97
2019-03-24T01:49:38.610Z,1.87
2019-03-24T01:52:06.863Z,1.83
2019-03-24T01:54:35.191Z,1.93
2019-03-24T01:57:03.517Z,3.60
2019-03-24T01:59:31.842Z,1.23
2019-03-24T02:02:00.446Z,2.33
2019-03-24T02:04:28.793Z,2.03
2019-03-24T02:06:57.064Z,2.17
2019-03-24T02:09:25.317Z,2.30
2019-03-24T02:11:53.656Z,2.07
2019-03-24T02:14:21.947Z,4.50
2019-03-24T02:16:50.292Z,1.73
2019-03-24T02:19:18.689Z,1.67
2019-03-24T02:21:47.007Z,1.43
2019-03-24T02:24:15.304Z,1.50
2019-03-24T02:26:43.668Z,4.77
2019-03-24T02:29:12.113Z,2.37
2019-03-24T02:31:40.418Z,1.27
2019-03-24T02:34:08.752Z,2.50
2019-03-24T02:36:37.128Z,1.43
2019-03-24T02:39:07.391Z,2.13
2019-03-24T02:41:35.803Z,2.97
2019-03-24T02:44:04.250Z,1.33
2019-03-24T02:46:32.617Z,2.20
2019-03-24T02:49:00.914Z,3.37
2019-03-24T02:51:29.343Z,1.67
2019-03-24T02:53:57.629Z,1.37
2019-03-24T02:56:25.938Z,1.67
2019-03-24T02:58:54.277Z,2.73
2019-03-24T03:01:22.619Z,2.63
2019-03-24T03:03:50.921Z,0.90
2019-03-24T03:06:19.246Z,1.57
2019-03-24T03:08:50.565Z,1.47
2019-03-24T03:11:18.873Z,2.00
2019-03-24T03:13:47.162Z,1.83
2019-03-24T03:16:15.525Z,2.57
2019-03-24T03:18:44.072Z,3.77
2019-03-24T03:21:12.427Z,2.67
2019-03-24T03:23:40.762Z,3.07
2019-03-24T03:26:09.104Z,1.17
2019-03-24T03:28:37.562Z,2.60
2019-03-24T03:31:05.894Z,2.10
2019-03-24T03:33:34.245Z,1.87
2019-03-24T03:36:02.663Z,5.80
2019-03-24T03:38:31.171Z,1.03
2019-03-24T03:41:02.558Z,2.40
2019-03-24T03:43:30.822Z,7.20
2019-03-24T03:45:59.208Z,0.80
2019-03-24T03:48:27.554Z,1.07
2019-03-24T03:50:56.044Z,3.07
2019-03-24T03:53:24.532Z,1.70
2019-03-24T03:55:52.830Z,1.60
2019-03-24T03:58:21.196Z,4.53
2019-03-24T04:00:49.488Z,4.77
2019-03-24T04:03:17.798Z,2.43
2019-03-24T04:05:46.135Z,1.10
2019-03-24T04:08:14.632Z,1.20
2019-03-24T04:10:42.948Z,3.33
2019-03-24T04:13:12.357Z,3.27
2019-03-24T04:15:40.670Z,0.67
2019-03-24T04:18:08.950Z,2.43
2019-03-24T04:20:37.216Z,2.47
2019-03-24T04:23:05.503Z,1.60
2019-03-24T04:25:33.890Z,2.87
2019-03-24T04:28:03.757Z,2.27
2019-03-24T04:30:32.128Z,2.77
2019-03-24T04:33:00.385Z,1.57
2019-03-24T04:35:28.776Z,5.13
2019-03-24T04:37:57.202Z,2.57
2019-03-24T04:40:25.536Z,5.53
2019-03-24T04:42:53.849Z,1.53
2019-03-24T04:45:24.620Z,1.27
2019-03-24T04:47:52.993Z,3.40
2019-03-24T04:50:21.300Z,2.97
2019-03-24T04:52:49.618Z,0.90
2019-03-24T04:55:17.934Z,4.87
2019-03-24T04:57:46.240Z,3.20
2019-03-24T05:00:15.033Z,2.63
2019-03-24T05:02:43.358Z,2.83
2019-03-24T05:05:11.711Z,1.53
2019-03-24T05:07:40.457Z,2.10
2019-03-24T05:10:10.878Z,2.17
2019-03-24T05:12:39.266Z,4.03
2019-03-24T05:15:07.716Z,1.87
2019-03-24T05:17:36.047Z,3.50
2019-03-24T05:20:04.440Z,1.47
2019-03-24T05:22:32.961Z,1.73
2019-03-24T05:25:01.249Z,2.13
2019-03-24T05:27:29.834Z,1.87
2019-03-24T05:29:58.134Z,1.50
2019-03-24T05:32:26.434Z,1.60
2019-03-24T05:34:54.802Z,1.07
2019-03-24T05:37:23.197Z,4.03
2019-03-24T05:39:51.463Z,3.20
2019-03-24T05:42:19.768Z,1.10
2019-03-24T05:44:48.188Z,2.00
2019-03-24T05:47:16.550Z,0.80
2019-03-24T05:49:44.852Z,2.63
2019-03-24T05:52:13.094Z,2.93
2019-03-24T05:54:41.373Z,1.03
2019-03-24T05:57:09.741Z,2.03
2019-03-24T05:59:38.066Z,1.37
2019-03-24T06:02:06.359Z,0.83
2019-03-24T06:04:34.683Z,0.90
2019-03-24T06:07:05.757Z,3.67
2019-03-24T06:09:34.056Z,1.83
2019-03-24T06:12:02.276Z,1.20
2019-03-24T06:14:30.540Z,3.60
2019-03-24T06:16:58.833Z,1.53
2019-03-24T06:19:27.171Z,1.97
2019-03-24T06:21:55.480Z,1.60
2019-03-24T06:24:23.767Z,1.30
2019-03-24T06:26:53.012Z,2.10
2019-03-24T06:29:21.345Z,1.90
2019-03-24T06:31:49.799Z,1.03
2019-03-24T06:34:18.107Z,1.33
2019-03-24T06:36:46.413Z,2.23
2019-03-24T06:39:14.795Z,3.33
2019-03-24T06:41:43.190Z,2.00
2019-03-24T06:44:11.634Z,1.30
2019-03-24T06:46:39.959Z,2.37
2019-03-24T06:49:08.379Z,3.23
2019-03-24T06:51:36.674Z,1.53
2019-03-24T06:54:07.185Z,2.23
2019-03-24T06:56:35.608Z,1.43
2019-03-24T06:59:03.904Z,2.17
2019-03-24T07:01:32.244Z,2.37
2019-03-24T07:04:00.550Z,2.50
2019-03-24T07:06:28.883Z,1.23
2019-03-24T07:08:57.294Z,2.00
2019-03-24T07:11:25.565Z,3.90
2019-03-24T07:13:53.788Z,1.80
2019-03-24T07:16:22.191Z,1.07
2019-03-24T07:18:50.524Z,1.93
2019-03-24T07:21:18.828Z,1.13
2019-03-24T07:23:47.184Z,1.97
2019-03-24T07:26:15.531Z,1.83
2019-03-24T07:28:43.779Z,1.73
2019-03-24T07:31:12.195Z,1.63
2019-03-24T07:33:40.641Z,0.93
2019-03-24T07:36:08.997Z,1.77
2019-03-24T07:38:37.458Z,0.93
2019-03-24T07:41:05.689Z,1.67
2019-03-24T07:43:34.061Z,1.20
2019-03-24T07:46:02.390Z,1.47
2019-03-24T07:48:30.741Z,1.43
2019-03-24T07:50:59.134Z,3.73
2019-03-24T07:53:27.486Z,1.73
2019-03-24T07:55:55.796Z,1.53
2019-03-24T07:58:24.153Z,1.53
2019-03-24T08:00:53.959Z,3.80
2019-03-24T08:03:22.359Z,1.20
2019-03-24T08:05:50.860Z,0.80
2019-03-24T08:08:19.425Z,1.87
2019-03-24T08:10:48.098Z,1.40
2019-03-24T08:13:16.397Z,1.70
2019-03-24T08:15:44.799Z,1.17
2019-03-24T08:18:13.209Z,1.87
2019-03-24T08:20:41.501Z,0.93
2019-03-24T08:23:09.957Z,1.47
2019-03-24T08:25:38.284Z,1.70
2019-03-24T08:28:06.561Z,0.93
2019-03-24T08:30:35.792Z,3.60
2019-03-24T08:33:05.279Z,1.87
2019-03-24T08:35:33.597Z,2.60
2019-03-24T08:38:01.897Z,1.43
2019-03-24T08:40:30.273Z,1.17
2019-03-24T08:42:58.738Z,3.20
2019-03-24T08:45:27.788Z,1.17
2019-03-24T08:47:56.560Z,1.80
2019-03-24T08:50:24.902Z,5.27
2019-03-24T08:52:53.130Z,1.53
2019-03-24T08:55:21.440Z,2.13
2019-03-24T08:57:49.730Z,1.20
2019-03-24T09:00:18.056Z,2.03
2019-03-24T09:02:46.483Z,2.23
2019-03-24T09:05:14.756Z,3.63
2019-03-24T09:07:43.169Z,3.23
2019-03-24T09:10:11.437Z,3.90
2019-03-24T09:12:39.748Z,3.13
2019-03-24T09:15:08.168Z,2.03
2019-03-24T09:17:36.782Z,1.30
2019-03-24T09:20:05.591Z,2.63
2019-03-24T09:22:33.999Z,1.97
2019-03-24T09:25:02.379Z,4.37
2019-03-24T09:27:30.715Z,1.70
2019-03-24T09:30:00.345Z,3.40
2019-03-24T09:32:29.933Z,1.17
2019-03-24T09:34:58.802Z,2.10
2019-03-24T09:37:27.084Z,1.97
2019-03-24T09:39:55.484Z,3.07
2019-03-24T09:42:23.958Z,2.73
2019-03-24T09:44:52.281Z,1.87
2019-03-24T09:47:20.671Z,2.50
2019-03-24T09:49:48.903Z,1.90
2019-03-24T09:52:17.306Z,2.80
2019-03-24T09:54:45.652Z,0.90
2019-03-24T09:57:14.075Z,3.60
2019-03-24T09:59:42.508Z,5.23
2019-03-24T10:02:10.939Z,7.07
2019-03-24T10:04:39.262Z,1.23
2019-03-24T10:07:07.653Z,2.17
2019-03-24T10:09:36.022Z,2.50
2019-03-24T10:12:04.496Z,7.97
2019-03-24T10:14:32.928Z,2.50
2019-03-24T10:17:01.323Z,7.20
2019-03-24T10:19:29.679Z,1.60
2019-03-24T10:21:58.047Z,4.80
2019-03-24T10:24:26.585Z,3.53
2019-03-24T10:26:55.008Z,2.67
2019-03-24T10:29:23.573Z,2.63
2019-03-24T10:31:52.022Z,3.43
2019-03-24T10:34:20.405Z,2.33
2019-03-24T10:36:48.801Z,3.37
2019-03-24T10:39:18.745Z,2.27
2019-03-24T10:41:47.116Z,4.53
2019-03-24T10:44:15.539Z,4.17
2019-03-24T10:46:43.860Z,3.90
2019-03-24T10:49:12.217Z,1.77
2019-03-24T10:51:40.587Z,4.27
2019-03-24T10:54:09.017Z,3.80
2019-03-24T10:56:37.417Z,4.33
2019-03-24T10:59:05.809Z,4.80
2019-03-24T11:01:34.112Z,2.03
2019-03-24T11:04:02.431Z,3.40
2019-03-24T11:06:30.818Z,3.60
2019-03-24T11:08:59.323Z,3.17
2019-03-24T11:11:27.630Z,4.60
2019-03-24T11:13:56.051Z,3.80
2019-03-24T11:16:24.558Z,3.17
2019-03-24T11:18:52.971Z,5.73
2019-03-24T11:21:21.281Z,8.20
2019-03-24T11:23:49.589Z,2.67
2019-03-24T11:26:18.020Z,4.47
2019-03-24T11:28:46.426Z,5.17
2019-03-24T11:31:14.854Z,3.20
2019-03-24T11:33:43.213Z,4.73
2019-03-24T11:36:13.893Z,4.63
2019-03-24T11:38:42.187Z,3.60
2019-03-24T11:41:10.573Z,3.60
2019-03-24T11:43:38.999Z,2.53
2019-03-24T11:46:07.385Z,3.67
2019-03-24T11:48:35.760Z,4.50
2019-03-24T11:51:04.086Z,2.43
2019-03-24T11:53:32.517Z,5.93
2019-03-24T11:56:01.074Z,4.07
2019-03-24T11:58:29.450Z,2.23
2019-03-24T12:00:57.805Z,3.97
2019-03-24T12:03:29.175Z,1.70
2019-03-24T12:05:57.533Z,6.77
2019-03-24T12:08:26.454Z,2.87
2019-03-24T12:10:54.946Z,2.17
2019-03-24T12:13:23.264Z,2.67
2019-03-24T12:15:51.660Z,2.67
2019-03-24T12:18:19.987Z,2.10
2019-03-24T12:20:48.308Z,2.77
2019-03-24T12:23:21.028Z,4.37
2019-03-24T12:25:49.660Z,3.57
2019-03-24T12:28:18.045Z,6.77
2019-03-24T12:30:46.396Z,4.57
2019-03-24T12:33:14.982Z,5.07
2019-03-24T12:35:43.371Z,7.77
2019-03-24T12:38:11.829Z,4.13
2019-03-24T12:40:40.303Z,3.23
2019-03-24T12:43:18.578Z,7.70
2019-03-24T12:45:38.682Z,9.83
2019-03-24T12:48:07.043Z,3.27
2019-03-24T12:50:35.398Z,3.27
2019-03-24T12:53:03.871Z,3.00
2019-03-24T12:55:32.389Z,4.97
2019-03-24T12:58:00.842Z,4.27
2019-03-24T13:00:33.212Z,2.17
2019-03-24T13:03:01.607Z,2.43
2019-03-24T13:05:30.029Z,2.03
2019-03-24T13:07:58.791Z,3.60
2019-03-24T13:10:27.185Z,6.77
2019-03-24T13:12:55.472Z,5.00
2019-03-24T13:15:23.857Z,5.00
2019-03-24T13:17:52.136Z,3.50
2019-03-24T13:20:37.752Z,1.27
2019-03-24T13:22:55.163Z,2.53
2019-03-24T13:25:25.158Z,4.70
2019-03-24T13:27:53.552Z,2.00
2019-03-24T13:30:21.985Z,3.50
2019-03-24T13:32:50.323Z,3.77
2019-03-24T13:35:18.838Z,2.00
2019-03-24T13:37:47.307Z,6.17
2019-03-24T13:40:15.551Z,7.90
2019-03-24T13:42:44.390Z,3.43
2019-03-24T13:45:12.887Z,4.70
2019-03-24T13:47:41.260Z,3.53
2019-03-24T13:50:09.707Z,5.77
2019-03-24T13:52:38.076Z,4.20
2019-03-24T13:55:06.572Z,2.27
2019-03-24T13:57:34.913Z,1.87
2019-03-24T14:00:03.249Z,1.87
2019-03-24T14:02:31.678Z,3.67
2019-03-24T14:05:00.008Z,11.50
2019-03-24T14:07:28.318Z,3.60
2019-03-24T14:09:56.623Z,5.90
2019-03-24T14:12:27.008Z,5.13
2019-03-24T14:14:55.324Z,7.30
2019-03-24T14:17:23.661Z,2.67
2019-03-24T14:19:52.076Z,5.30
2019-03-24T14:22:20.336Z,4.80
2019-03-24T14:24:48.604Z,3.10
2019-03-24T14:27:16.985Z,4.40
2019-03-24T14:29:45.317Z,5.97
2019-03-24T14:32:13.665Z,8.73
2019-03-24T14:34:42.012Z,2.53
2019-03-24T14:37:11.774Z,3.80
2019-03-24T14:39:40.198Z,4.00
2019-03-24T14:42:08.478Z,3.30
2019-03-24T14:44:36.909Z,3.83
2019-03-24T14:47:05.219Z,3.33
2019-03-24T14:49:33.481Z,7.17
2019-03-24T14:52:01.923Z,7.20
2019-03-24T14:54:30.193Z,3.50
2019-03-24T14:56:58.508Z,5.33
2019-03-24T14:59:26.849Z,3.70
2019-03-24T15:01:55.257Z,2.00
2019-03-24T15:04:23.626Z,4.97
2019-03-24T15:06:51.896Z,3.17
2019-03-24T15:09:20.173Z,3.20
2019-03-24T15:11:51.616Z,2.03
2019-03-24T15:14:19.956Z,6.17
2019-03-24T15:16:48.395Z,2.93
2019-03-24T15:19:16.721Z,1.93
2019-03-24T15:21:45.120Z,5.27
2019-03-24T15:24:13.520Z,1.50
2019-03-24T15:26:41.870Z,11.70
2019-03-24T15:29:10.225Z,6.13
2019-03-24T15:31:38.640Z,5.07
2019-03-24T15:34:06.990Z,4.47
2019-03-24T15:36:35.300Z,7.97
2019-03-24T15:39:05.151Z,6.23
2019-03-24T15:41:33.722Z,4.73
2019-03-24T15:44:02.011Z,3.83
2019-03-24T15:46:30.339Z,5.90
2019-03-24T15:48:58.781Z,3.93
2019-03-24T15:51:27.226Z,7.97
2019-03-24T15:53:55.623Z,2.27
2019-03-24T15:56:23.994Z,9.17
2019-03-24T15:58:52.312Z,4.77
2019-03-24T16:01:20.641Z,3.03
2019-03-24T16:03:49.167Z,6.80
2019-03-24T16:06:17.575Z,3.57
2019-03-24T16:08:45.956Z,4.63
2019-03-24T16:11:16.135Z,8.77
2019-03-24T16:13:44.278Z,3.50
2019-03-24T16:16:12.670Z,4.37
2019-03-24T16:18:41.078Z,3.60
2019-03-24T16:21:09.471Z,2.63
2019-03-24T16:23:37.803Z,4.20
2019-03-24T16:26:08.176Z,4.20
2019-03-24T16:28:36.602Z,3.77
2019-03-24T16:31:04.980Z,4.83
2019-03-24T16:33:34.692Z,7.57
2019-03-24T16:36:02.958Z,4.90
2019-03-24T16:38:31.312Z,5.47
2019-03-24T16:40:59.588Z,5.43
2019-03-24T16:43:29.292Z,5.57
2019-03-24T16:45:57.710Z,5.67
2019-03-24T16:48:36.214Z,3.53
2019-03-24T16:50:55.983Z,1.63
2019-03-24T16:53:24.307Z,5.13
2019-03-24T16:55:54.183Z,3.47
2019-03-24T16:58:22.589Z,3.20
2019-03-24T17:00:50.965Z,4.00
2019-03-24T17:03:19.423Z,3.00
2019-03-24T17:05:47.802Z,3.77
2019-03-24T17:08:16.253Z,4.57
2019-03-24T17:10:44.672Z,7.37
2019-03-24T17:13:13.188Z,3.57
2019-03-24T17:15:41.536Z,5.47
2019-03-24T17:18:09.744Z,5.97
2019-03-24T17:20:38.204Z,4.93
2019-03-24T17:23:06.517Z,6.77
2019-03-24T17:25:34.820Z,5.87
2019-03-24T17:28:03.212Z,7.13
2019-03-24T17:30:31.556Z,5.00
2019-03-24T17:32:59.864Z,5.13
2019-03-24T17:35:28.274Z,11.37
2019-03-24T17:37:56.903Z,5.50
2019-03-24T17:40:25.413Z,5.33
2019-03-24T17:42:53.778Z,7.23
2019-03-24T17:45:22.097Z,6.57
2019-03-24T17:47:50.479Z,8.33
2019-03-24T17:50:19.944Z,7.67
2019-03-24T17:52:48.357Z,4.33
2019-03-24T17:55:26.839Z,6.93
2019-03-24T17:57:46.719Z,7.27
2019-03-24T18:00:17.324Z,9.17
2019-03-24T18:02:45.744Z,5.87
2019-03-24T18:05:14.249Z,8.53
2019-03-24T18:07:42.602Z,5.77
2019-03-24T18:10:14.241Z,6.23
2019-03-24T18:12:42.536Z,4.33
2019-03-24T18:15:11.038Z,9.47
2019-03-24T18:17:39.411Z,11.40
2019-03-24T18:20:07.932Z,6.10
2019-03-24T18:22:36.646Z,7.43
2019-03-24T18:25:05.849Z,4.63
2019-03-24T18:27:34.197Z,5.60
2019-03-24T18:30:02.826Z,4.10
2019-03-24T18:32:31.130Z,5.63
2019-03-24T18:34:59.788Z,6.17
2019-03-24T18:37:28.273Z,9.13
2019-03-24T18:39:56.786Z,4.17
2019-03-24T18:42:27.515Z,5.00
2019-03-24T18:44:56.588Z,6.83
2019-03-24T18:47:24.894Z,7.73
2019-03-24T18:49:53.448Z,6.90
2019-03-24T18:52:23.121Z,4.70
2019-03-24T18:54:51.577Z,7.43
2019-03-24T18:57:20.043Z,6.00
2019-03-24T18:59:49.213Z,8.97
2019-03-24T19:02:17.531Z,6.53
2019-03-24T19:04:45.839Z,6.23
2019-03-24T19:07:14.150Z,8.37
2019-03-24T19:09:42.572Z,8.20
2019-03-24T19:12:10.966Z,7.93
2019-03-24T19:14:40.231Z,4.20
2019-03-24T19:17:10.134Z,8.00
2019-03-24T19:19:38.799Z,8.67
2019-03-24T19:22:07.239Z,8.53
2019-03-24T19:24:35.607Z,8.77
2019-03-24T19:27:04.160Z,7.53
2019-03-24T19:29:32.524Z,8.13
2019-03-24T19:32:00.841Z,7.37
2019-03-24T19:34:29.190Z,6.57
2019-03-24T19:36:57.845Z,7.70
2019-03-24T19:39:26.715Z,5.77
2019-03-24T19:41:55.007Z,6.43
2019-03-24T19:44:23.314Z,6.60
2019-03-24T19:46:51.680Z,6.87
2019-03-24T19:49:20.037Z,3.73
2019-03-24T19:51:48.442Z,5.07
2019-03-24T19:54:16.745Z,6.17
2019-03-24T19:56:45.153Z,5.53
2019-03-24T19:59:13.622Z,5.63
2019-03-24T20:01:41.986Z,3.40
2019-03-24T20:04:11.498Z,5.13
2019-03-24T20:06:39.765Z,7.07
2019-03-24T20:09:08.896Z,9.87
2019-03-24T20:11:37.240Z,5.23
2019-03-24T20:14:05.560Z,6.33
2019-03-24T20:16:34.034Z,7.27
2019-03-24T20:19:02.376Z,5.93
2019-03-24T20:21:30.698Z,6.25
2019-03-24T20:23:59.080Z,5.70
2019-03-24T20:26:27.448Z,6.53
2019-03-24T20:28:55.693Z,6.83
2019-03-24T20:31:24.065Z,7.50
2019-03-24T20:33:52.522Z,6.23
2019-03-24T20:36:24.087Z,6.03
2019-03-24T20:38:52.460Z,7.40
2019-03-24T20:41:20.757Z,4.07
2019-03-24T20:43:49.467Z,6.00
2019-03-24T20:46:17.792Z,5.23
2019-03-24T20:48:46.244Z,8.43
2019-03-24T20:51:14.905Z,8.17
2019-03-24T20:53:43.223Z,9.73
2019-03-24T20:56:11.541Z,8.93
2019-03-24T20:58:39.881Z,10.43
2019-03-24T21:01:08.269Z,4.63
2019-03-24T21:03:36.509Z,7.97
2019-03-24T21:06:04.854Z,4.73
2019-03-24T21:08:33.168Z,5.97
2019-03-24T21:11:01.483Z,4.73
2019-03-24T21:13:29.857Z,7.30
2019-03-24T21:15:58.172Z,6.77
2019-03-24T21:18:26.515Z,6.67
2019-03-24T21:20:54.903Z,6.00
2019-03-24T21:23:29.411Z,9.57
2019-03-24T21:25:53.394Z,5.50
2019-03-24T21:28:21.677Z,5.33
2019-03-24T21:30:50.330Z,7.23
2019-03-24T21:33:18.660Z,6.23
2019-03-24T21:35:47.021Z,6.80
2019-03-24T21:38:15.420Z,6.33
2019-03-24T21:40:43.800Z,7.40
2019-03-24T21:43:12.184Z,8.53
2019-03-24T21:45:40.506Z,5.60
2019-03-24T21:48:08.858Z,7.23
2019-03-24T21:50:37.173Z,9.80
2019-03-24T21:53:05.813Z,10.90
2019-03-24T21:55:34.123Z,5.73
2019-03-24T21:58:02.420Z,5.37
2019-03-24T22:00:34.524Z,6.67
2019-03-24T22:03:02.845Z,10.97
2019-03-24T22:05:31.187Z,8.17
2019-03-24T22:07:59.518Z,11.27
2019-03-24T22:10:27.913Z,6.63
2019-03-24T22:12:56.262Z,7.27
2019-03-24T22:15:24.667Z,7.97
2019-03-24T22:17:53.137Z,11.27
2019-03-24T22:20:21.774Z,6.60
2019-03-24T22:22:50.185Z,6.47
2019-03-24T22:25:18.639Z,8.73
2019-03-24T22:27:46.946Z,6.13
2019-03-24T22:30:15.380Z,7.40
2019-03-24T22:32:43.609Z,7.00
2019-03-24T22:35:12.044Z,6.03
2019-03-24T22:37:40.389Z,5.97
2019-03-24T22:40:08.947Z,5.13
2019-03-24T22:42:37.278Z,7.23
2019-03-24T22:45:05.862Z,7.83
2019-03-24T22:47:34.180Z,5.33
2019-03-24T22:50:02.469Z,6.63
2019-03-24T22:52:30.762Z,4.50
2019-03-24T22:54:59.087Z,6.13
2019-03-24T22:57:27.436Z,7.33
2019-03-24T22:59:55.892Z,8.90
2019-03-24T23:02:24.234Z,8.40
2019-03-24T23:04:52.619Z,4.87
2019-03-24T23:07:21.045Z,10.00
2019-03-24T23:09:49.389Z,7.30
2019-03-24T23:12:17.620Z,7.87
2019-03-24T23:14:45.948Z,9.23
2019-03-24T23:17:14.252Z,8.20
2019-03-24T23:19:42.595Z,4.30
2019-03-24T23:22:10.893Z,9.03
2019-03-24T23:24:39.242Z,5.73
2019-03-24T23:27:07.550Z,10.67
2019-03-24T23:29:35.809Z,6.27
2019-03-24T23:32:04.130Z,8.40
2019-03-24T23:34:32.432Z,7.80
2019-03-24T23:37:00.722Z,7.70
2019-03-24T23:39:28.999Z,5.30
2019-03-24T23:41:57.376Z,6.70
2019-03-24T23:44:25.612Z,6.70
2019-03-24T23:46:53.920Z,6.53
2019-03-24T23:49:22.216Z,6.23
2019-03-24T23:51:50.575Z,7.50
2019-03-24T23:54:27.003Z,8.03
2019-03-24T23:56:48.867Z,9.60
2019-03-24T23:59:17.248Z,7.67
